createdAt,value
2023-05-04T00:02:24.333Z,6.65
2023-05-04T00:05:28.949Z,7.28
2023-05-04T00:08:33.569Z,7.28
2023-05-04T00:11:39.137Z,6.90
2023-05-04T00:14:43.885Z,7.43
2023-05-04T00:17:48.135Z,6.53
2023-05-04T00:20:52.766Z,6.75
2023-05-04T00:23:57.112Z,6.20
2023-05-04T00:27:02.281Z,7.30
2023-05-04T00:30:08.674Z,7.72
2023-05-04T00:33:13.032Z,6.80
2023-05-04T00:36:17.411Z,7.25
2023-05-04T00:42:26.119Z,6.88
2023-05-04T00:45:30.990Z,7.53
2023-05-04T00:48:36.277Z,7.00
2023-05-04T00:51:41.165Z,6.68
2023-05-04T00:54:47.816Z,7.72
2023-05-04T00:57:52.875Z,7.55
2023-05-04T01:00:57.196Z,8.00
2023-05-04T01:04:01.665Z,7.65
2023-05-04T01:07:55.272Z,8.55
2023-05-04T01:11:26.957Z,8.90
2023-05-04T01:14:31.506Z,7.40
2023-05-04T01:17:36.534Z,7.75
2023-05-04T01:20:40.951Z,8.07
2023-05-04T01:23:45.430Z,7.47
2023-05-04T01:27:19.128Z,8.00
2023-05-04T01:30:34.912Z,8.15
2023-05-04T01:33:40.223Z,7.50
2023-05-04T01:36:46.008Z,8.13
2023-05-04T01:39:50.185Z,8.48
2023-05-04T01:42:54.603Z,9.48
2023-05-04T01:45:59.026Z,8.00
2023-05-04T01:49:03.510Z,8.40
2023-05-04T01:52:07.757Z,7.65
2023-05-04T01:55:12.132Z,7.32
2023-05-04T02:01:23.188Z,8.40
2023-05-04T02:04:27.830Z,7.75
2023-05-04T02:07:32.539Z,7.68
2023-05-04T02:10:36.957Z,8.32
2023-05-04T02:13:41.280Z,8.10
2023-05-04T02:16:45.710Z,7.20
2023-05-04T02:19:49.996Z,8.02
2023-05-04T02:22:54.857Z,7.20
2023-05-04T02:25:59.393Z,7.40
2023-05-04T02:29:04.990Z,7.20
2023-05-04T02:32:09.452Z,7.53
2023-05-04T02:35:14.055Z,8.23
2023-05-04T02:38:18.361Z,7.20
2023-05-04T02:41:22.859Z,7.53
2023-05-04T02:44:27.041Z,7.85
2023-05-04T02:47:32.138Z,7.97
2023-05-04T02:50:36.509Z,7.95
2023-05-04T02:53:40.910Z,8.45
2023-05-04T02:56:45.716Z,8.85
2023-05-04T02:59:51.058Z,8.30
2023-05-04T03:02:55.226Z,8.18
2023-05-04T03:05:59.583Z,8.15
2023-05-04T03:09:04.557Z,7.78
2023-05-04T03:12:09.061Z,7.53
2023-05-04T03:15:13.593Z,7.30
2023-05-04T03:18:17.748Z,8.82
2023-05-04T03:21:22.199Z,8.32
2023-05-04T03:24:26.391Z,7.95
2023-05-04T03:27:30.708Z,8.43
2023-05-04T03:30:36.240Z,8.18
2023-05-04T03:33:41.077Z,8.13
2023-05-04T03:36:45.941Z,8.27
2023-05-04T03:39:50.200Z,8.13
2023-05-04T03:42:54.259Z,8.40
2023-05-04T03:45:58.623Z,8.70
2023-05-04T03:49:03.545Z,8.85
2023-05-04T03:52:07.733Z,8.32
2023-05-04T03:55:12.048Z,7.90
2023-05-04T03:58:16.227Z,8.65
2023-05-04T04:01:20.388Z,8.40
2023-05-04T04:04:25.027Z,8.55
2023-05-04T04:07:29.399Z,8.13
2023-05-04T04:10:34.524Z,8.52
2023-05-04T04:13:39.022Z,7.68
2023-05-04T04:16:43.376Z,8.85
2023-05-04T04:19:47.806Z,7.85
2023-05-04T04:22:52.291Z,8.30
2023-05-04T04:25:56.859Z,8.45
2023-05-04T04:29:00.969Z,8.32
2023-05-04T04:32:06.403Z,9.13
2023-05-04T04:35:10.792Z,8.63
2023-05-04T04:38:15.029Z,8.02
2023-05-04T04:41:19.262Z,9.18
2023-05-04T04:44:23.810Z,8.27
2023-05-04T04:47:28.136Z,8.98
2023-05-04T04:50:33.133Z,8.00
2023-05-04T04:53:37.634Z,8.80
2023-05-04T04:56:42.558Z,10.63
2023-05-04T04:59:47.214Z,9.32
2023-05-04T05:02:51.797Z,9.50
2023-05-04T05:05:56.350Z,10.15
2023-05-04T05:09:00.700Z,9.95
2023-05-04T05:12:08.101Z,9.50
2023-05-04T05:15:12.916Z,9.55
2023-05-04T05:18:17.236Z,9.55
2023-05-04T05:21:21.372Z,9.93
2023-05-04T05:24:25.851Z,9.05
2023-05-04T05:27:30.588Z,8.85
2023-05-04T05:30:35.351Z,9.25
2023-05-04T05:33:40.980Z,8.57
2023-05-04T05:36:45.634Z,9.75
2023-05-04T05:39:49.878Z,10.18
2023-05-04T05:42:54.086Z,9.55
2023-05-04T05:45:58.438Z,10.20
2023-05-04T05:49:05.873Z,9.82
2023-05-04T05:52:10.504Z,10.23
2023-05-04T05:55:15.045Z,9.88
2023-05-04T05:58:19.235Z,9.85
2023-05-04T06:01:24.188Z,9.70
2023-05-04T06:04:28.902Z,9.18
2023-05-04T06:07:33.372Z,8.75
2023-05-04T06:10:37.790Z,8.02
2023-05-04T06:13:42.081Z,8.45
2023-05-04T06:16:46.670Z,7.75
2023-05-04T06:19:51.390Z,7.28
2023-05-04T06:22:56.953Z,7.72
2023-05-04T06:26:01.925Z,7.65
2023-05-04T06:29:06.192Z,8.50
2023-05-04T06:32:11.116Z,7.10
2023-05-04T06:35:16.156Z,7.45
2023-05-04T06:38:21.764Z,6.90
2023-05-04T06:41:26.351Z,7.13
2023-05-04T06:44:34.091Z,5.82
2023-05-04T06:47:38.678Z,5.70
2023-05-04T06:50:43.389Z,5.25
2023-05-04T06:53:47.702Z,4.80
2023-05-04T06:56:51.899Z,5.97
2023-05-04T06:59:56.128Z,4.90
2023-05-04T07:03:00.617Z,5.55
2023-05-04T07:06:07.666Z,4.65
2023-05-04T07:09:12.041Z,4.60
2023-05-04T07:12:16.680Z,4.10
2023-05-04T07:15:21.605Z,5.15
2023-05-04T07:18:25.987Z,3.97
2023-05-04T07:21:30.780Z,4.57
2023-05-04T07:24:35.218Z,4.30
2023-05-04T07:27:41.390Z,4.40
2023-05-04T07:30:45.591Z,5.65
2023-05-04T07:33:50.096Z,4.57
2023-05-04T07:36:54.773Z,5.25
2023-05-04T07:40:00.523Z,5.22
2023-05-04T07:43:07.520Z,5.07
2023-05-04T07:46:13.134Z,5.13
2023-05-04T07:49:17.339Z,5.32
2023-05-04T07:52:22.136Z,5.10
2023-05-04T07:55:28.905Z,5.72
2023-05-04T07:58:33.459Z,4.95
2023-05-04T08:01:38.250Z,5.18
2023-05-04T08:04:42.916Z,4.60
2023-05-04T08:07:47.602Z,5.07
2023-05-04T08:10:51.865Z,4.68
2023-05-04T08:13:56.343Z,4.38
2023-05-04T08:17:00.776Z,4.78
2023-05-04T08:20:07.858Z,3.65
2023-05-04T08:23:12.366Z,4.32
2023-05-04T08:26:17.246Z,4.53
2023-05-04T08:29:22.423Z,4.15
2023-05-04T08:32:27.192Z,4.78
2023-05-04T08:35:31.819Z,4.35
2023-05-04T08:38:36.642Z,4.25
2023-05-04T08:41:41.555Z,3.50
2023-05-04T08:44:46.804Z,3.65
2023-05-04T08:47:51.528Z,3.95
2023-05-04T08:50:57.647Z,3.78
2023-05-04T08:54:10.670Z,3.45
2023-05-04T08:57:16.510Z,3.95
2023-05-04T09:00:23.110Z,3.95
2023-05-04T09:03:28.411Z,4.28
2023-05-04T09:06:33.099Z,3.35
2023-05-04T09:09:37.703Z,3.90
2023-05-04T09:12:42.571Z,4.28
2023-05-04T09:15:58.109Z,3.55
2023-05-04T09:19:04.796Z,2.92
2023-05-04T09:22:18.671Z,3.60
2023-05-04T09:25:23.349Z,3.22
2023-05-04T09:31:52.453Z,3.00
2023-05-04T09:34:56.734Z,3.17
2023-05-04T09:38:01.697Z,3.33
2023-05-04T09:41:06.433Z,3.17
2023-05-04T09:44:25.938Z,3.10
2023-05-04T09:47:41.859Z,3.45
2023-05-04T09:50:53.139Z,2.70
2023-05-04T09:54:03.306Z,3.17
2023-05-04T09:57:16.008Z,3.17
2023-05-04T10:00:20.492Z,3.13
2023-05-04T10:03:27.949Z,3.10
2023-05-04T10:06:33.780Z,2.78
2023-05-04T10:09:39.507Z,2.42
2023-05-04T10:12:45.438Z,2.45
2023-05-04T10:16:27.656Z,2.70
2023-05-04T10:20:16.943Z,2.30
2023-05-04T10:24:14.256Z,2.58
2023-05-04T10:27:46.049Z,2.58
2023-05-04T10:30:58.292Z,2.10
2023-05-04T10:34:02.889Z,2.13
2023-05-04T10:37:18.139Z,2.42
2023-05-04T10:40:40.245Z,2.42
2023-05-04T10:43:50.676Z,2.65
2023-05-04T10:47:08.696Z,3.00
2023-05-04T10:50:15.989Z,3.17
2023-05-04T10:53:33.097Z,2.47
2023-05-04T10:56:38.144Z,3.38
2023-05-04T10:59:43.263Z,2.97
2023-05-04T11:02:49.560Z,2.85
2023-05-04T11:05:54.870Z,2.90
2023-05-04T11:09:02.286Z,3.20
2023-05-04T11:12:10.770Z,2.92
2023-05-04T11:15:15.334Z,3.22
2023-05-04T11:18:46.164Z,2.65
2023-05-04T11:21:50.616Z,2.85
2023-05-04T11:24:56.218Z,3.08
2023-05-04T11:28:01.573Z,3.08
2023-05-04T11:31:17.146Z,3.13
2023-05-04T11:34:22.200Z,3.22
2023-05-04T11:37:29.304Z,2.80
2023-05-04T11:40:35.452Z,2.97
2023-05-04T11:43:42.787Z,2.28
2023-05-04T11:46:48.140Z,2.63
2023-05-04T11:49:53.243Z,2.88
2023-05-04T11:53:13.604Z,2.55
2023-05-04T11:56:18.714Z,2.85
2023-05-04T11:59:23.084Z,2.60
2023-05-04T12:02:27.934Z,2.70
2023-05-04T12:05:34.614Z,2.90
2023-05-04T12:08:42.481Z,2.53
2023-05-04T12:11:56.176Z,2.20
2023-05-04T12:15:00.654Z,2.53
2023-05-04T12:18:30.531Z,2.50
2023-05-04T12:21:36.877Z,2.28
2023-05-04T12:24:41.490Z,2.20
2023-05-04T12:27:49.021Z,2.70
2023-05-04T12:30:53.922Z,2.90
2023-05-04T12:33:58.309Z,2.60
2023-05-04T12:37:03.200Z,2.25
2023-05-04T12:40:21.213Z,2.78
2023-05-04T12:46:37.712Z,2.28
2023-05-04T12:49:42.266Z,2.40
2023-05-04T12:52:52.321Z,2.33
2023-05-04T12:55:57.240Z,2.85
2023-05-04T12:59:02.474Z,2.60
2023-05-04T13:02:07.170Z,2.75
2023-05-04T13:05:13.063Z,2.42
2023-05-04T13:08:19.584Z,1.85
2023-05-04T13:11:25.046Z,2.13
2023-05-04T13:14:29.297Z,2.08
2023-05-04T13:17:34.758Z,2.10
2023-05-04T13:20:40.501Z,1.88
2023-05-04T13:23:44.834Z,1.83
2023-05-04T13:26:50.273Z,2.72
2023-05-04T13:29:54.836Z,2.15
2023-05-04T13:32:59.020Z,2.60
2023-05-04T13:36:05.874Z,2.17
2023-05-04T13:39:10.342Z,2.38
2023-05-04T13:42:15.199Z,2.33
2023-05-04T13:45:22.832Z,2.15
2023-05-04T13:48:27.967Z,2.15
2023-05-04T13:51:32.788Z,2.15
2023-05-04T13:54:37.406Z,1.92
2023-05-04T13:57:41.566Z,1.92
2023-05-04T14:00:46.382Z,2.10
2023-05-04T14:03:51.274Z,1.88
2023-05-04T14:06:56.957Z,1.85
2023-05-04T14:10:01.832Z,2.28
2023-05-04T14:13:06.253Z,2.33
2023-05-04T14:16:11.012Z,2.03
2023-05-04T14:19:15.092Z,2.53
2023-05-04T14:22:19.554Z,14.43
2023-05-04T14:25:23.741Z,2.00
2023-05-04T14:28:27.981Z,2.20
2023-05-04T14:31:32.687Z,2.03
2023-05-04T14:34:37.243Z,2.40
2023-05-04T14:37:41.475Z,2.20
2023-05-04T14:40:47.563Z,2.05
2023-05-04T14:43:53.473Z,2.70
2023-05-04T14:46:57.743Z,2.15
2023-05-04T14:50:02.547Z,2.42
2023-05-04T14:53:08.276Z,2.45
2023-05-04T14:56:12.720Z,2.83
2023-05-04T14:59:19.681Z,2.25
2023-05-04T15:02:24.327Z,2.63
2023-05-04T15:05:29.120Z,2.55
2023-05-04T15:08:33.357Z,2.90
2023-05-04T15:11:37.563Z,3.47
2023-05-04T15:14:42.013Z,3.00
2023-05-04T15:17:52.756Z,2.78
2023-05-04T15:20:57.652Z,3.20
2023-05-04T15:24:03.680Z,3.47
2023-05-04T15:27:08.099Z,3.40
2023-05-04T15:30:12.857Z,3.72
2023-05-04T15:33:17.228Z,3.25
2023-05-04T15:36:21.591Z,3.35
2023-05-04T15:39:26.645Z,3.38
2023-05-04T15:42:31.102Z,3.45
2023-05-04T15:45:35.849Z,3.55
2023-05-04T15:48:40.205Z,3.25
2023-05-04T15:51:44.383Z,3.00
2023-05-04T15:54:48.804Z,3.03
2023-05-04T15:57:54.031Z,3.53
2023-05-04T16:01:03.294Z,2.95
2023-05-04T16:04:07.590Z,2.88
2023-05-04T16:07:12.334Z,3.28
2023-05-04T16:10:16.786Z,3.20
2023-05-04T16:13:21.401Z,3.05
2023-05-04T16:16:26.682Z,3.78
2023-05-04T16:19:31.688Z,3.00
2023-05-04T16:22:36.440Z,3.47
2023-05-04T16:25:41.015Z,3.13
2023-05-04T16:28:45.636Z,3.35
2023-05-04T16:31:50.969Z,3.20
2023-05-04T16:34:55.924Z,2.75
2023-05-04T16:38:01.090Z,3.13
2023-05-04T16:41:06.977Z,3.58
2023-05-04T16:44:11.097Z,3.40
2023-05-04T16:47:16.236Z,3.97
2023-05-04T16:50:20.831Z,3.50
2023-05-04T16:53:25.147Z,3.58
2023-05-04T16:56:29.495Z,3.30
2023-05-04T16:59:33.690Z,3.50
2023-05-04T17:05:42.383Z,3.90
2023-05-04T17:08:47.568Z,4.00
2023-05-04T17:11:52.100Z,3.30
2023-05-04T17:14:57.136Z,3.35
2023-05-04T17:18:02.153Z,3.65
2023-05-04T17:21:06.561Z,3.33
2023-05-04T17:24:11.385Z,4.00
2023-05-04T17:27:15.781Z,3.75
2023-05-04T17:30:20.682Z,3.17
2023-05-04T17:33:25.118Z,3.45
2023-05-04T17:36:29.558Z,3.33
2023-05-04T17:39:33.867Z,3.42
2023-05-04T17:42:38.518Z,3.50
2023-05-04T17:45:43.379Z,3.75
2023-05-04T17:48:47.752Z,4.05
2023-05-04T17:51:53.125Z,3.60
2023-05-04T17:54:57.255Z,3.92
2023-05-04T17:58:02.274Z,3.20
2023-05-04T18:01:06.443Z,4.13
2023-05-04T18:04:11.646Z,4.35
2023-05-04T18:07:15.930Z,3.88
2023-05-04T18:10:20.330Z,3.45
2023-05-04T18:16:28.977Z,4.82
2023-05-04T18:19:34.365Z,4.38
2023-05-04T18:22:39.294Z,4.63
2023-05-04T18:25:43.709Z,4.68
2023-05-04T18:28:48.644Z,4.45
2023-05-04T18:31:52.927Z,4.30
2023-05-04T18:34:57.953Z,4.55
2023-05-04T18:38:02.483Z,4.60
2023-05-04T18:41:07.037Z,4.38
2023-05-04T18:44:11.018Z,4.32
2023-05-04T18:47:15.660Z,5.78
2023-05-04T18:50:20.448Z,5.10
2023-05-04T18:53:26.346Z,4.45
2023-05-04T18:56:32.547Z,5.32
2023-05-04T18:59:37.140Z,4.25
2023-05-04T19:02:41.327Z,4.93
2023-05-04T19:08:49.728Z,4.40
2023-05-04T19:11:54.813Z,4.80
2023-05-04T19:14:59.227Z,4.28
2023-05-04T19:18:03.528Z,4.28
2023-05-04T19:21:08.029Z,4.28
2023-05-04T19:24:12.259Z,3.95
2023-05-04T19:27:17.123Z,4.03
2023-05-04T19:30:21.410Z,4.63
2023-05-04T19:33:40.281Z,4.00
2023-05-04T19:36:49.622Z,3.42
2023-05-04T19:39:54.680Z,3.53
2023-05-04T19:42:59.329Z,3.10
2023-05-04T19:46:03.756Z,3.28
2023-05-04T19:49:08.227Z,4.55
2023-05-04T19:52:12.524Z,3.85
2023-05-04T19:58:28.165Z,3.10
2023-05-04T20:01:32.785Z,3.33
2023-05-04T20:04:37.109Z,3.13
2023-05-04T20:07:41.995Z,3.50
2023-05-04T20:10:47.460Z,2.90
2023-05-04T20:13:53.518Z,3.67
2023-05-04T20:16:59.863Z,3.42
2023-05-04T20:20:06.186Z,3.17
2023-05-04T20:23:10.575Z,3.22
2023-05-04T20:26:14.642Z,3.65
2023-05-04T20:29:19.165Z,3.40
2023-05-04T20:32:23.366Z,3.20
2023-05-04T20:35:27.974Z,3.72
2023-05-04T20:38:32.496Z,3.88
2023-05-04T20:41:37.994Z,3.08
2023-05-04T20:44:42.681Z,3.72
2023-05-04T20:47:47.642Z,3.05
2023-05-04T20:50:59.876Z,3.08
2023-05-04T20:54:11.699Z,3.47
2023-05-04T20:57:15.630Z,3.15
2023-05-04T21:00:20.059Z,2.65
2023-05-04T21:03:24.815Z,3.42
2023-05-04T21:06:29.541Z,2.80
2023-05-04T21:09:34.128Z,2.90
2023-05-04T21:12:38.281Z,3.13
2023-05-04T21:15:42.585Z,2.85
2023-05-04T21:18:47.368Z,2.90
2023-05-04T21:21:51.990Z,3.03
2023-05-04T21:24:56.571Z,3.00
2023-05-04T21:28:00.980Z,2.75
2023-05-04T21:31:09.407Z,2.50
2023-05-04T21:34:13.913Z,2.58
2023-05-04T21:37:18.833Z,3.00
2023-05-04T21:40:27.488Z,2.58
2023-05-04T21:43:32.135Z,3.97
2023-05-04T21:46:36.706Z,2.80
2023-05-04T21:49:40.804Z,3.10
2023-05-04T21:52:44.862Z,3.08
2023-05-04T21:55:49.218Z,3.25
2023-05-04T21:58:53.584Z,2.70
2023-05-04T22:01:58.008Z,2.80
2023-05-04T22:05:02.553Z,2.92
2023-05-04T22:08:06.699Z,3.13
2023-05-04T22:14:15.906Z,3.22
2023-05-04T22:17:20.530Z,2.42
2023-05-04T22:20:26.678Z,3.28
2023-05-04T22:23:30.995Z,2.70
2023-05-04T22:29:41.782Z,2.95
2023-05-04T22:32:49.026Z,3.50
2023-05-04T22:35:53.576Z,2.58
2023-05-04T22:38:58.000Z,2.50
2023-05-04T22:42:02.891Z,2.65
2023-05-04T22:45:08.431Z,2.67
2023-05-04T22:48:16.855Z,2.47
2023-05-04T22:51:21.003Z,2.72
2023-05-04T22:54:25.772Z,2.10
2023-05-04T22:57:30.071Z,2.33
2023-05-04T23:00:34.716Z,2.55
2023-05-04T23:03:39.211Z,2.60
2023-05-04T23:06:43.844Z,2.30
2023-05-04T23:12:52.220Z,2.20
2023-05-04T23:15:56.841Z,2.28
2023-05-04T23:19:01.949Z,2.03
2023-05-04T23:22:06.497Z,2.28
2023-05-04T23:25:10.978Z,1.73
2023-05-04T23:28:15.529Z,1.70
2023-05-04T23:31:19.971Z,1.83
2023-05-04T23:34:24.372Z,1.95
2023-05-04T23:37:33.420Z,1.63
2023-05-04T23:40:37.696Z,1.63
2023-05-04T23:46:46.160Z,1.52
2023-05-04T23:49:50.826Z,1.50
2023-05-04T23:52:55.337Z,1.15
2023-05-04T23:56:04.075Z,1.98
2023-05-04T23:59:10.530Z,1.10
